sensor_id;sensor_type;location;lat;lon;timestamp;temperature;humidity
77039;DHT22;65970;50.476;4.840;2023-01-08T00:04:57;9.90;99.90
77039;DHT22;65970;50.476;4.840;2023-01-08T00:09:57;9.90;99.90
77039;DHT22;65970;50.476;4.840;2023-01-08T00:14:58;9.90;99.90
77039;DHT22;65970;50.476;4.840;2023-01-08T00:19:59;9.90;99.90
77039;DHT22;65970;50.476;4.840;2023-01-08T00:24:59;9.90;99.90
77039;DHT22;65970;50.476;4.840;2023-01-08T00:30:00;9.90;99.90
77039;DHT22;65970;50.476;4.840;2023-01-08T00:35:00;9.90;99.90
77039;DHT22;65970;50.476;4.840;2023-01-08T00:40:01;9.80;99.90
77039;DHT22;65970;50.476;4.840;2023-01-08T00:45:01;9.90;99.90
77039;DHT22;65970;50.476;4.840;2023-01-08T00:50:03;9.80;99.90
77039;DHT22;65970;50.476;4.840;2023-01-08T00:55:03;9.90;99.90
77039;DHT22;65970;50.476;4.840;2023-01-08T01:00:07;9.80;99.90
77039;DHT22;65970;50.476;4.840;2023-01-08T01:05:08;9.80;99.90
77039;DHT22;65970;50.476;4.840;2023-01-08T01:10:10;9.80;99.90
77039;DHT22;65970;50.476;4.840;2023-01-08T01:15:14;9.80;99.90
77039;DHT22;65970;50.476;4.840;2023-01-08T01:20:15;9.80;99.90
77039;DHT22;65970;50.476;4.840;2023-01-08T01:25:16;9.90;99.90
77039;DHT22;65970;50.476;4.840;2023-01-08T01:30:17;9.80;99.90
77039;DHT22;65970;50.476;4.840;2023-01-08T01:35:17;9.80;99.90
77039;DHT22;65970;50.476;4.840;2023-01-08T01:40:18;9.90;99.90
77039;DHT22;65970;50.476;4.840;2023-01-08T01:45:22;9.90;99.90
77039;DHT22;65970;50.476;4.840;2023-01-08T01:50:29;9.80;99.90
77039;DHT22;65970;50.476;4.840;2023-01-08T01:55:31;9.90;99.90
77039;DHT22;65970;50.476;4.840;2023-01-08T02:00:34;9.90;99.90
77039;DHT22;65970;50.476;4.840;2023-01-08T02:05:49;9.90;99.90
77039;DHT22;65970;50.476;4.840;2023-01-08T02:11:19;9.90;99.90
77039;DHT22;65970;50.476;4.840;2023-01-08T02:16:50;9.90;99.90
77039;DHT22;65970;50.476;4.840;2023-01-08T02:22:02;9.90;99.90
77039;DHT22;65970;50.476;4.840;2023-01-08T02:27:05;9.90;99.90
77039;DHT22;65970;50.476;4.840;2023-01-08T02:32:07;9.90;99.90
77039;DHT22;65970;50.476;4.840;2023-01-08T02:37:08;9.90;99.90
77039;DHT22;65970;50.476;4.840;2023-01-08T02:47:45;9.90;99.90
77039;DHT22;65970;50.476;4.840;2023-01-08T02:53:01;9.90;99.90
77039;DHT22;65970;50.476;4.840;2023-01-08T02:58:04;9.90;99.90
77039;DHT22;65970;50.476;4.840;2023-01-08T03:03:25;9.90;99.90
77039;DHT22;65970;50.476;4.840;2023-01-08T03:08:27;9.90;99.90
77039;DHT22;65970;50.476;4.840;2023-01-08T03:18:56;9.90;99.90
77039;DHT22;65970;50.476;4.840;2023-01-08T03:23:59;9.90;99.90
77039;DHT22;65970;50.476;4.840;2023-01-08T03:29:01;9.90;99.90
77039;DHT22;65970;50.476;4.840;2023-01-08T03:34:03;9.90;99.90
77039;DHT22;65970;50.476;4.840;2023-01-08T03:39:16;10.00;99.90
77039;DHT22;65970;50.476;4.840;2023-01-08T03:44:17;10.00;99.90
77039;DHT22;65970;50.476;4.840;2023-01-08T03:49:19;10.00;99.90
77039;DHT22;65970;50.476;4.840;2023-01-08T03:54:24;9.90;99.90
77039;DHT22;65970;50.476;4.840;2023-01-08T03:59:27;9.80;99.90
77039;DHT22;65970;50.476;4.840;2023-01-08T04:04:27;9.60;99.90
77039;DHT22;65970;50.476;4.840;2023-01-08T04:09:28;9.40;99.90
77039;DHT22;65970;50.476;4.840;2023-01-08T04:14:28;9.10;99.90
77039;DHT22;65970;50.476;4.840;2023-01-08T04:19:29;9.00;99.90
77039;DHT22;65970;50.476;4.840;2023-01-08T04:24:29;8.90;99.90
77039;DHT22;65970;50.476;4.840;2023-01-08T04:29:30;8.80;99.90
77039;DHT22;65970;50.476;4.840;2023-01-08T04:34:31;8.80;99.90
77039;DHT22;65970;50.476;4.840;2023-01-08T04:39:31;8.80;99.90
77039;DHT22;65970;50.476;4.840;2023-01-08T04:44:32;8.80;99.90
77039;DHT22;65970;50.476;4.840;2023-01-08T04:49:32;8.80;99.90
77039;DHT22;65970;50.476;4.840;2023-01-08T04:54:33;8.80;99.90
77039;DHT22;65970;50.476;4.840;2023-01-08T04:59:33;8.70;99.90
77039;DHT22;65970;50.476;4.840;2023-01-08T05:04:34;8.70;99.90
77039;DHT22;65970;50.476;4.840;2023-01-08T05:09:34;8.60;99.90
77039;DHT22;65970;50.476;4.840;2023-01-08T05:14:35;8.60;99.90
77039;DHT22;65970;50.476;4.840;2023-01-08T05:19:36;8.60;99.90
77039;DHT22;65970;50.476;4.840;2023-01-08T05:24:36;8.60;99.90
77039;DHT22;65970;50.476;4.840;2023-01-08T05:29:37;8.50;99.90
77039;DHT22;65970;50.476;4.840;2023-01-08T05:34:37;8.50;99.90
77039;DHT22;65970;50.476;4.840;2023-01-08T05:39:38;8.40;99.90
77039;DHT22;65970;50.476;4.840;2023-01-08T05:44:40;8.50;99.90
77039;DHT22;65970;50.476;4.840;2023-01-08T05:49:40;8.40;99.90
77039;DHT22;65970;50.476;4.840;2023-01-08T05:54:41;8.40;99.90
77039;DHT22;65970;50.476;4.840;2023-01-08T05:59:41;8.40;99.90
77039;DHT22;65970;50.476;4.840;2023-01-08T06:04:42;8.30;99.90
77039;DHT22;65970;50.476;4.840;2023-01-08T06:09:43;8.40;99.90
77039;DHT22;65970;50.476;4.840;2023-01-08T06:14:44;8.30;99.90
77039;DHT22;65970;50.476;4.840;2023-01-08T06:19:44;8.30;99.90
77039;DHT22;65970;50.476;4.840;2023-01-08T06:24:45;8.40;99.90
77039;DHT22;65970;50.476;4.840;2023-01-08T06:29:45;8.40;99.90
77039;DHT22;65970;50.476;4.840;2023-01-08T06:34:46;8.40;99.90
77039;DHT22;65970;50.476;4.840;2023-01-08T06:39:46;8.30;99.90
77039;DHT22;65970;50.476;4.840;2023-01-08T06:44:47;8.30;99.90
77039;DHT22;65970;50.476;4.840;2023-01-08T06:49:47;8.30;99.90
77039;DHT22;65970;50.476;4.840;2023-01-08T06:54:48;8.30;99.90
77039;DHT22;65970;50.476;4.840;2023-01-08T06:59:48;8.20;99.90
77039;DHT22;65970;50.476;4.840;2023-01-08T07:04:49;8.20;99.90
77039;DHT22;65970;50.476;4.840;2023-01-08T07:09:50;8.20;99.90
77039;DHT22;65970;50.476;4.840;2023-01-08T07:14:50;8.20;99.90
77039;DHT22;65970;50.476;4.840;2023-01-08T07:19:51;8.20;99.90
77039;DHT22;65970;50.476;4.840;2023-01-08T07:24:51;8.20;99.90
77039;DHT22;65970;50.476;4.840;2023-01-08T07:29:52;8.20;99.90
77039;DHT22;65970;50.476;4.840;2023-01-08T07:34:53;8.20;99.90
77039;DHT22;65970;50.476;4.840;2023-01-08T07:39:53;8.30;99.90
77039;DHT22;65970;50.476;4.840;2023-01-08T07:44:54;8.20;99.90
77039;DHT22;65970;50.476;4.840;2023-01-08T07:49:54;8.30;99.90
77039;DHT22;65970;50.476;4.840;2023-01-08T07:54:55;8.30;99.90
77039;DHT22;65970;50.476;4.840;2023-01-08T07:59:55;8.30;99.90
77039;DHT22;65970;50.476;4.840;2023-01-08T08:04:56;8.30;99.90
77039;DHT22;65970;50.476;4.840;2023-01-08T08:09:56;8.30;99.90
77039;DHT22;65970;50.476;4.840;2023-01-08T08:14:57;8.30;99.90
77039;DHT22;65970;50.476;4.840;2023-01-08T08:19:57;8.40;99.90
77039;DHT22;65970;50.476;4.840;2023-01-08T08:24:58;8.40;99.90
77039;DHT22;65970;50.476;4.840;2023-01-08T08:29:58;8.40;99.90
77039;DHT22;65970;50.476;4.840;2023-01-08T08:34:59;8.50;99.90
77039;DHT22;65970;50.476;4.840;2023-01-08T08:40:00;8.50;99.90
77039;DHT22;65970;50.476;4.840;2023-01-08T08:45:00;8.50;99.90
77039;DHT22;65970;50.476;4.840;2023-01-08T08:50:02;8.50;99.90
77039;DHT22;65970;50.476;4.840;2023-01-08T09:00:32;8.60;99.90
77039;DHT22;65970;50.476;4.840;2023-01-08T09:05:36;8.60;99.90
77039;DHT22;65970;50.476;4.840;2023-01-08T09:10:41;8.60;99.90
77039;DHT22;65970;50.476;4.840;2023-01-08T09:15:43;8.50;99.90
77039;DHT22;65970;50.476;4.840;2023-01-08T09:26:01;8.40;99.90
77039;DHT22;65970;50.476;4.840;2023-01-08T09:31:03;8.40;99.90
77039;DHT22;65970;50.476;4.840;2023-01-08T09:36:04;8.30;99.90
77039;DHT22;65970;50.476;4.840;2023-01-08T09:41:08;8.30;99.90
77039;DHT22;65970;50.476;4.840;2023-01-08T09:46:11;8.30;99.90
77039;DHT22;65970;50.476;4.840;2023-01-08T09:51:13;8.30;99.90
77039;DHT22;65970;50.476;4.840;2023-01-08T10:01:35;8.40;99.90
77039;DHT22;65970;50.476;4.840;2023-01-08T10:06:36;8.40;99.90
77039;DHT22;65970;50.476;4.840;2023-01-08T10:11:43;8.40;99.90
77039;DHT22;65970;50.476;4.840;2023-01-08T10:16:47;8.50;99.90
77039;DHT22;65970;50.476;4.840;2023-01-08T10:21:50;8.50;99.90
77039;DHT22;65970;50.476;4.840;2023-01-08T10:26:51;8.60;99.90
77039;DHT22;65970;50.476;4.840;2023-01-08T10:31:53;8.70;99.90
77039;DHT22;65970;50.476;4.840;2023-01-08T10:36:55;8.80;99.90
77039;DHT22;65970;50.476;4.840;2023-01-08T10:42:01;8.90;99.90
77039;DHT22;65970;50.476;4.840;2023-01-08T10:47:03;9.00;99.90
77039;DHT22;65970;50.476;4.840;2023-01-08T10:52:05;9.10;99.90
77039;DHT22;65970;50.476;4.840;2023-01-08T10:57:27;9.10;99.90
77039;DHT22;65970;50.476;4.840;2023-01-08T11:02:36;9.10;99.90
77039;DHT22;65970;50.476;4.840;2023-01-08T11:07:38;9.20;99.90
77039;DHT22;65970;50.476;4.840;2023-01-08T11:12:40;9.20;99.90
77039;DHT22;65970;50.476;4.840;2023-01-08T11:17:41;9.20;99.90
77039;DHT22;65970;50.476;4.840;2023-01-08T11:22:41;9.30;99.90
77039;DHT22;65970;50.476;4.840;2023-01-08T11:27:43;9.40;99.90
77039;DHT22;65970;50.476;4.840;2023-01-08T11:33:03;9.50;99.90
77039;DHT22;65970;50.476;4.840;2023-01-08T11:38:06;9.60;99.90
77039;DHT22;65970;50.476;4.840;2023-01-08T11:53:29;9.90;99.90
77039;DHT22;65970;50.476;4.840;2023-01-08T12:03:43;10.10;99.90
77039;DHT22;65970;50.476;4.840;2023-01-08T12:30:29;9.90;99.90
77039;DHT22;65970;50.476;4.840;2023-01-08T12:35:46;9.90;99.90
77039;DHT22;65970;50.476;4.840;2023-01-08T12:41:15;9.80;99.90
77039;DHT22;65970;50.476;4.840;2023-01-08T12:46:17;9.80;99.90
77039;DHT22;65970;50.476;4.840;2023-01-08T12:51:34;10.00;99.90
77039;DHT22;65970;50.476;4.840;2023-01-08T12:56:58;10.00;99.90
77039;DHT22;65970;50.476;4.840;2023-01-08T13:02:06;10.00;99.90
77039;DHT22;65970;50.476;4.840;2023-01-08T13:07:43;10.00;99.90
77039;DHT22;65970;50.476;4.840;2023-01-08T13:12:49;9.90;99.90
77039;DHT22;65970;50.476;4.840;2023-01-08T13:17:54;9.90;99.90
77039;DHT22;65970;50.476;4.840;2023-01-08T13:23:01;9.80;99.90
77039;DHT22;65970;50.476;4.840;2023-01-08T13:33:39;9.80;99.90
77039;DHT22;65970;50.476;4.840;2023-01-08T13:38:42;9.80;99.90
77039;DHT22;65970;50.476;4.840;2023-01-08T13:43:44;9.80;99.90
77039;DHT22;65970;50.476;4.840;2023-01-08T13:48:48;9.70;99.90
77039;DHT22;65970;50.476;4.840;2023-01-08T13:53:50;9.70;99.90
77039;DHT22;65970;50.476;4.840;2023-01-08T13:58:52;9.70;99.90
77039;DHT22;65970;50.476;4.840;2023-01-08T14:03:53;9.70;99.90
77039;DHT22;65970;50.476;4.840;2023-01-08T14:09:04;9.70;99.90
77039;DHT22;65970;50.476;4.840;2023-01-08T14:14:04;9.60;99.90
77039;DHT22;65970;50.476;4.840;2023-01-08T14:19:06;9.60;99.90
77039;DHT22;65970;50.476;4.840;2023-01-08T14:24:14;9.60;99.90
77039;DHT22;65970;50.476;4.840;2023-01-08T14:29:19;9.60;99.90
77039;DHT22;65970;50.476;4.840;2023-01-08T14:34:21;9.60;99.90
77039;DHT22;65970;50.476;4.840;2023-01-08T14:44:24;9.60;99.90
77039;DHT22;65970;50.476;4.840;2023-01-08T14:49:29;9.60;99.90
77039;DHT22;65970;50.476;4.840;2023-01-08T14:54:33;9.70;99.90
77039;DHT22;65970;50.476;4.840;2023-01-08T14:59:34;9.60;99.90
77039;DHT22;65970;50.476;4.840;2023-01-08T15:04:36;9.60;99.90
77039;DHT22;65970;50.476;4.840;2023-01-08T15:09:36;9.60;99.90
77039;DHT22;65970;50.476;4.840;2023-01-08T15:14:37;9.50;99.90
77039;DHT22;65970;50.476;4.840;2023-01-08T15:19:47;9.50;99.90
77039;DHT22;65970;50.476;4.840;2023-01-08T15:25:15;9.50;99.90
77039;DHT22;65970;50.476;4.840;2023-01-08T15:30:24;9.40;99.90
77039;DHT22;65970;50.476;4.840;2023-01-08T15:35:25;9.30;99.90
77039;DHT22;65970;50.476;4.840;2023-01-08T15:40:26;9.30;99.90
77039;DHT22;65970;50.476;4.840;2023-01-08T15:45:28;9.20;99.90
77039;DHT22;65970;50.476;4.840;2023-01-08T15:50:29;9.20;99.90
77039;DHT22;65970;50.476;4.840;2023-01-08T15:55:31;9.20;99.90
77039;DHT22;65970;50.476;4.840;2023-01-08T16:00:31;9.20;99.90
77039;DHT22;65970;50.476;4.840;2023-01-08T16:05:32;9.20;99.90
77039;DHT22;65970;50.476;4.840;2023-01-08T16:10:33;9.20;99.90
77039;DHT22;65970;50.476;4.840;2023-01-08T16:15:34;9.10;99.90
77039;DHT22;65970;50.476;4.840;2023-01-08T16:20:34;9.10;99.90
77039;DHT22;65970;50.476;4.840;2023-01-08T16:25:37;9.10;99.90
77039;DHT22;65970;50.476;4.840;2023-01-08T16:30:38;9.00;99.90
77039;DHT22;65970;50.476;4.840;2023-01-08T16:35:39;9.00;99.90
77039;DHT22;65970;50.476;4.840;2023-01-08T16:40:39;9.00;99.90
77039;DHT22;65970;50.476;4.840;2023-01-08T16:45:45;8.90;99.90
77039;DHT22;65970;50.476;4.840;2023-01-08T16:50:45;8.90;99.90
77039;DHT22;65970;50.476;4.840;2023-01-08T16:55:46;8.90;99.90
77039;DHT22;65970;50.476;4.840;2023-01-08T17:00:47;8.90;99.90
77039;DHT22;65970;50.476;4.840;2023-01-08T17:05:48;8.90;99.90
77039;DHT22;65970;50.476;4.840;2023-01-08T17:10:49;8.90;99.90
77039;DHT22;65970;50.476;4.840;2023-01-08T17:15:49;8.90;99.90
77039;DHT22;65970;50.476;4.840;2023-01-08T17:20:53;8.90;99.90
77039;DHT22;65970;50.476;4.840;2023-01-08T17:25:55;8.90;99.90
77039;DHT22;65970;50.476;4.840;2023-01-08T17:31:03;8.90;99.90
77039;DHT22;65970;50.476;4.840;2023-01-08T17:36:16;8.90;99.90
77039;DHT22;65970;50.476;4.840;2023-01-08T17:41:17;8.90;99.90
77039;DHT22;65970;50.476;4.840;2023-01-08T17:46:18;9.00;99.90
77039;DHT22;65970;50.476;4.840;2023-01-08T17:51:19;9.00;99.90
77039;DHT22;65970;50.476;4.840;2023-01-08T17:56:19;9.00;99.90
77039;DHT22;65970;50.476;4.840;2023-01-08T18:01:20;9.00;99.90
77039;DHT22;65970;50.476;4.840;2023-01-08T18:06:21;9.00;99.90
77039;DHT22;65970;50.476;4.840;2023-01-08T18:11:21;9.00;99.90
77039;DHT22;65970;50.476;4.840;2023-01-08T18:16:22;9.10;99.90
77039;DHT22;65970;50.476;4.840;2023-01-08T18:21:23;9.10;99.90
77039;DHT22;65970;50.476;4.840;2023-01-08T18:26:24;9.10;99.90
77039;DHT22;65970;50.476;4.840;2023-01-08T18:31:25;9.20;99.90
77039;DHT22;65970;50.476;4.840;2023-01-08T18:36:26;9.10;99.90
77039;DHT22;65970;50.476;4.840;2023-01-08T18:41:26;9.20;99.90
77039;DHT22;65970;50.476;4.840;2023-01-08T18:46:27;9.20;99.90
77039;DHT22;65970;50.476;4.840;2023-01-08T18:51:27;9.20;99.90
77039;DHT22;65970;50.476;4.840;2023-01-08T18:56:30;9.20;99.90
77039;DHT22;65970;50.476;4.840;2023-01-08T19:01:32;9.20;99.90
77039;DHT22;65970;50.476;4.840;2023-01-08T19:06:34;9.10;99.90
77039;DHT22;65970;50.476;4.840;2023-01-08T19:11:34;9.10;99.90
77039;DHT22;65970;50.476;4.840;2023-01-08T19:16:35;9.20;99.90
77039;DHT22;65970;50.476;4.840;2023-01-08T19:21:36;9.20;99.90
77039;DHT22;65970;50.476;4.840;2023-01-08T19:26:37;9.20;99.90
77039;DHT22;65970;50.476;4.840;2023-01-08T19:31:37;9.20;99.90
77039;DHT22;65970;50.476;4.840;2023-01-08T19:36:38;9.20;99.90
77039;DHT22;65970;50.476;4.840;2023-01-08T19:41:39;9.20;99.90
77039;DHT22;65970;50.476;4.840;2023-01-08T19:46:39;9.20;99.90
77039;DHT22;65970;50.476;4.840;2023-01-08T19:51:40;9.30;99.90
77039;DHT22;65970;50.476;4.840;2023-01-08T19:56:40;9.30;99.90
77039;DHT22;65970;50.476;4.840;2023-01-08T20:01:41;9.20;99.90
77039;DHT22;65970;50.476;4.840;2023-01-08T20:06:41;9.20;99.90
77039;DHT22;65970;50.476;4.840;2023-01-08T20:11:42;9.20;99.90
77039;DHT22;65970;50.476;4.840;2023-01-08T20:16:42;9.20;99.90
77039;DHT22;65970;50.476;4.840;2023-01-08T20:21:43;9.20;99.90
77039;DHT22;65970;50.476;4.840;2023-01-08T20:26:45;9.20;99.90
77039;DHT22;65970;50.476;4.840;2023-01-08T20:31:48;9.20;99.90
77039;DHT22;65970;50.476;4.840;2023-01-08T20:36:49;9.20;99.90
77039;DHT22;65970;50.476;4.840;2023-01-08T20:41:50;9.20;99.90
77039;DHT22;65970;50.476;4.840;2023-01-08T20:46:50;9.10;99.90
77039;DHT22;65970;50.476;4.840;2023-01-08T20:51:51;9.10;99.90
77039;DHT22;65970;50.476;4.840;2023-01-08T20:56:54;9.10;99.90
77039;DHT22;65970;50.476;4.840;2023-01-08T21:01:54;9.10;99.90
77039;DHT22;65970;50.476;4.840;2023-01-08T21:06:55;9.00;99.90
77039;DHT22;65970;50.476;4.840;2023-01-08T21:11:55;9.00;99.90
77039;DHT22;65970;50.476;4.840;2023-01-08T21:16:56;9.10;99.90
77039;DHT22;65970;50.476;4.840;2023-01-08T21:21:57;9.00;99.90
77039;DHT22;65970;50.476;4.840;2023-01-08T21:26:57;9.00;99.90
77039;DHT22;65970;50.476;4.840;2023-01-08T21:31:58;9.00;99.90
77039;DHT22;65970;50.476;4.840;2023-01-08T21:36:58;9.00;99.90
77039;DHT22;65970;50.476;4.840;2023-01-08T21:41:59;8.90;99.90
77039;DHT22;65970;50.476;4.840;2023-01-08T21:47:00;8.90;99.90
77039;DHT22;65970;50.476;4.840;2023-01-08T21:52:00;8.90;99.90
77039;DHT22;65970;50.476;4.840;2023-01-08T21:57:01;8.90;99.90
77039;DHT22;65970;50.476;4.840;2023-01-08T22:02:02;8.90;99.90
77039;DHT22;65970;50.476;4.840;2023-01-08T22:07:03;8.90;99.90
77039;DHT22;65970;50.476;4.840;2023-01-08T22:12:04;8.70;99.90
77039;DHT22;65970;50.476;4.840;2023-01-08T22:17:04;8.70;99.90
77039;DHT22;65970;50.476;4.840;2023-01-08T22:22:05;8.60;99.90
77039;DHT22;65970;50.476;4.840;2023-01-08T22:27:07;8.60;99.90
77039;DHT22;65970;50.476;4.840;2023-01-08T22:32:07;8.50;99.90
77039;DHT22;65970;50.476;4.840;2023-01-08T22:37:08;8.50;99.90
77039;DHT22;65970;50.476;4.840;2023-01-08T22:42:09;8.50;99.90
77039;DHT22;65970;50.476;4.840;2023-01-08T22:47:09;8.40;99.90
77039;DHT22;65970;50.476;4.840;2023-01-08T22:52:10;8.40;99.90
77039;DHT22;65970;50.476;4.840;2023-01-08T22:57:10;8.30;99.90
77039;DHT22;65970;50.476;4.840;2023-01-08T23:02:11;8.30;99.90
77039;DHT22;65970;50.476;4.840;2023-01-08T23:07:12;8.30;99.90
77039;DHT22;65970;50.476;4.840;2023-01-08T23:12:13;8.20;99.90
77039;DHT22;65970;50.476;4.840;2023-01-08T23:17:14;8.20;99.90
77039;DHT22;65970;50.476;4.840;2023-01-08T23:22:14;8.10;99.90
77039;DHT22;65970;50.476;4.840;2023-01-08T23:27:15;8.00;99.90
77039;DHT22;65970;50.476;4.840;2023-01-08T23:32:15;8.00;99.90
77039;DHT22;65970;50.476;4.840;2023-01-08T23:37:16;8.00;99.90
77039;DHT22;65970;50.476;4.840;2023-01-08T23:42:17;7.90;99.90
77039;DHT22;65970;50.476;4.840;2023-01-08T23:47:17;7.90;99.90
77039;DHT22;65970;50.476;4.840;2023-01-08T23:52:18;7.80;99.90
77039;DHT22;65970;50.476;4.840;2023-01-08T23:57:18;7.70;99.90
